createdAt,value
2023-03-06T00:00:07.774Z,2.46
2023-03-06T00:01:07.561Z,3.18
2023-03-06T00:02:07.556Z,3.08
2023-03-06T00:03:07.498Z,2.59
2023-03-06T00:04:07.495Z,2.83
2023-03-06T00:05:07.436Z,2.34
2023-03-06T00:06:07.497Z,2.29
2023-03-06T00:07:07.388Z,2.85
2023-03-06T00:08:07.329Z,2.40
2023-03-06T00:09:07.326Z,2.55
2023-03-06T00:10:07.295Z,2.24
2023-03-06T00:11:07.261Z,3.04
2023-03-06T00:12:07.309Z,2.67
2023-03-06T00:13:07.177Z,2.54
2023-03-06T00:14:07.156Z,2.76
2023-03-06T00:15:07.174Z,2.74
2023-03-06T00:16:07.205Z,3.21
2023-03-06T00:17:07.060Z,2.95
2023-03-06T00:18:07.116Z,2.54
2023-03-06T00:19:06.989Z,2.93
2023-03-06T00:20:06.981Z,3.11
2023-03-06T00:21:06.940Z,2.65
2023-03-06T00:22:06.901Z,2.68
2023-03-06T00:23:06.873Z,2.45
2023-03-06T00:24:06.903Z,2.29
2023-03-06T00:25:06.839Z,2.54
2023-03-06T00:26:06.803Z,2.44
2023-03-06T00:27:06.785Z,3.01
2023-03-06T00:28:06.776Z,3.01
2023-03-06T00:29:06.804Z,2.63
2023-03-06T00:30:06.795Z,2.49
2023-03-06T00:31:06.729Z,2.85
2023-03-06T00:32:06.679Z,2.48
2023-03-06T00:33:06.611Z,2.70
2023-03-06T00:34:06.578Z,3.13
2023-03-06T00:35:06.584Z,2.54
2023-03-06T00:36:06.537Z,2.36
2023-03-06T00:37:06.495Z,2.54
2023-03-06T00:38:06.457Z,2.76
2023-03-06T00:39:06.432Z,3.05
2023-03-06T00:40:06.510Z,2.86
2023-03-06T00:41:06.379Z,2.83
2023-03-06T00:42:06.344Z,2.37
2023-03-06T00:43:06.329Z,2.81
2023-03-06T00:44:06.344Z,2.61
2023-03-06T00:45:06.285Z,2.49
2023-03-06T00:46:06.302Z,2.88
2023-03-06T00:47:06.204Z,2.65
2023-03-06T00:48:06.156Z,2.47
2023-03-06T00:49:06.166Z,2.42
2023-03-06T00:50:06.148Z,2.18
2023-03-06T00:51:06.057Z,2.40
2023-03-06T00:52:06.128Z,2.30
2023-03-06T00:53:06.018Z,2.55
2023-03-06T00:54:05.991Z,2.41
2023-03-06T00:55:05.968Z,3.08
2023-03-06T00:56:05.928Z,2.65
2023-03-06T00:57:05.897Z,2.60
2023-03-06T00:58:05.894Z,2.63
2023-03-06T00:59:05.854Z,2.50
2023-03-06T01:00:05.802Z,2.54
2023-03-06T01:01:05.822Z,2.22
2023-03-06T01:02:05.785Z,2.75
2023-03-06T01:03:05.708Z,2.37
2023-03-06T01:04:05.774Z,2.45
2023-03-06T01:05:05.661Z,2.88
2023-03-06T01:06:05.649Z,2.55
2023-03-06T01:07:05.633Z,2.86
2023-03-06T01:08:05.582Z,3.12
2023-03-06T01:09:05.558Z,2.68
2023-03-06T01:10:05.504Z,2.97
2023-03-06T01:11:05.478Z,2.74
2023-03-06T01:12:05.433Z,3.06
2023-03-06T01:13:05.475Z,2.36
2023-03-06T01:14:05.368Z,2.50
2023-03-06T01:15:05.377Z,2.30
2023-03-06T01:16:05.334Z,2.82
2023-03-06T02:54:02.410Z,4.33
2023-03-06T02:55:02.384Z,4.59
2023-03-06T02:56:02.360Z,4.35
2023-03-06T02:57:02.350Z,4.18
2023-03-06T02:58:02.328Z,4.34
2023-03-06T02:59:02.284Z,4.49
2023-03-06T03:00:02.255Z,4.12
2023-03-06T03:01:02.254Z,4.63
2023-03-06T03:02:02.209Z,4.78
2023-03-06T03:03:02.193Z,5.29
2023-03-06T03:04:02.175Z,4.77
2023-03-06T03:05:02.163Z,4.59
2023-03-06T03:06:02.112Z,4.51
2023-03-06T03:07:02.101Z,4.65
2023-03-06T03:08:02.113Z,5.27
2023-03-06T03:09:02.048Z,4.64
2023-03-06T03:10:02.066Z,5.01
2023-03-06T03:11:02.026Z,4.54
2023-03-06T03:12:01.989Z,4.93
2023-03-06T03:13:01.960Z,4.53
2023-03-06T03:14:01.950Z,4.39
2023-03-06T03:15:01.960Z,5.17
2023-03-06T03:16:02.008Z,5.43
2023-03-06T03:17:01.862Z,4.88
2023-03-06T03:19:01.846Z,5.00
2023-03-06T03:20:01.804Z,5.34
2023-03-06T03:21:01.759Z,5.46
2023-03-06T03:22:01.758Z,5.38
2023-03-06T03:23:01.730Z,5.29
2023-03-06T03:24:01.694Z,5.85
2023-03-06T03:25:01.746Z,4.83
2023-03-06T03:26:01.693Z,5.36
2023-03-06T03:27:01.635Z,5.76
2023-03-06T03:28:01.614Z,5.50
2023-03-06T03:29:01.572Z,5.74
2023-03-06T03:30:01.570Z,5.07
2023-03-06T03:31:01.544Z,4.69
2023-03-06T03:32:01.519Z,5.22
2023-03-06T03:33:01.549Z,4.72
2023-03-06T03:34:02.234Z,5.82
2023-03-06T03:35:01.442Z,5.47
2023-03-06T03:36:01.473Z,5.26
2023-03-06T03:37:01.420Z,5.62
2023-03-06T03:38:01.451Z,4.60
2023-03-06T03:39:01.392Z,6.51
2023-03-06T03:40:01.372Z,4.95
2023-03-06T03:41:01.400Z,5.09
2023-03-06T03:42:01.329Z,5.04
2023-03-06T03:43:01.323Z,5.63
2023-03-06T03:44:01.301Z,5.32
2023-03-06T03:45:01.268Z,5.82
2023-03-06T03:46:01.292Z,5.60
2023-03-06T03:47:01.281Z,5.73
2023-03-06T03:48:01.268Z,5.26
2023-03-06T03:49:01.229Z,5.53
2023-03-06T03:50:01.205Z,5.75
2023-03-06T03:51:01.162Z,5.69
2023-03-06T03:52:01.140Z,5.77
2023-03-06T03:53:01.178Z,5.08
2023-03-06T03:54:01.139Z,5.38
2023-03-06T03:55:01.111Z,5.27
2023-03-06T03:56:01.064Z,6.27
2023-03-06T03:57:01.042Z,4.57
2023-03-06T03:58:01.056Z,5.58
2023-03-06T03:59:01.039Z,5.36
2023-03-06T04:00:00.974Z,6.23
2023-03-06T04:01:00.959Z,6.03
2023-03-06T04:02:01.026Z,5.39
2023-03-06T04:03:00.944Z,5.06
2023-03-06T04:04:00.909Z,6.27
2023-03-06T04:05:00.911Z,5.18
2023-03-06T04:06:00.933Z,5.17
2023-03-06T04:07:00.865Z,4.97
2023-03-06T04:08:00.817Z,5.56
2023-03-06T04:09:00.778Z,5.19
2023-03-06T04:10:00.776Z,5.24
2023-03-06T04:11:00.746Z,5.98
2023-03-06T04:12:00.724Z,5.14
2023-03-06T04:13:00.739Z,5.60
2023-03-06T04:14:00.677Z,5.66
2023-03-06T04:15:00.650Z,5.33
2023-03-06T04:16:00.655Z,5.72
2023-03-06T04:17:00.889Z,5.66
2023-03-06T04:18:00.591Z,5.81
2023-03-06T04:19:00.618Z,5.98
2023-03-06T04:20:00.539Z,6.30
2023-03-06T04:21:00.488Z,6.20
2023-03-06T04:22:01.079Z,5.37
2023-03-06T04:23:00.484Z,5.46
2023-03-06T04:24:00.462Z,5.81
2023-03-06T04:25:00.425Z,5.63
2023-03-06T04:26:00.393Z,6.29
2023-03-06T04:27:00.429Z,5.74
2023-03-06T04:28:00.370Z,6.04
2023-03-06T04:29:00.414Z,6.14
2023-03-06T04:30:00.400Z,6.02
2023-03-06T04:31:00.300Z,6.05
2023-03-06T04:32:00.338Z,5.75
2023-03-06T04:33:00.272Z,4.57
2023-03-06T04:34:00.333Z,5.93
2023-03-06T04:35:00.212Z,4.35
2023-03-06T04:36:00.211Z,6.68
2023-03-06T04:37:00.217Z,6.59
2023-03-06T04:38:00.215Z,5.59
2023-03-06T04:39:00.362Z,6.16
2023-03-06T04:40:00.156Z,6.45
2023-03-06T04:41:00.130Z,6.27
2023-03-06T04:42:00.096Z,5.91
2023-03-06T04:43:00.257Z,5.35
2023-03-06T04:44:00.074Z,6.35
2023-03-06T04:45:00.088Z,6.39
2023-03-06T04:46:00.137Z,5.98
2023-03-06T04:46:59.987Z,6.85
2023-03-06T04:48:00.029Z,6.87
2023-03-06T04:48:59.964Z,5.86
2023-03-06T04:49:59.972Z,6.80
2023-03-06T04:50:59.935Z,6.75
2023-03-06T04:51:59.923Z,7.41
2023-03-06T04:52:59.892Z,6.85
2023-03-06T04:53:59.888Z,6.89
2023-03-06T04:54:59.862Z,5.40
2023-03-06T04:55:59.829Z,7.42
2023-03-06T04:56:59.801Z,6.65
2023-03-06T04:57:59.850Z,5.49
2023-03-06T04:58:59.893Z,6.53
2023-03-06T04:59:59.849Z,6.39
2023-03-06T05:00:59.851Z,6.84
2023-03-06T05:01:59.877Z,7.45
2023-03-06T05:02:59.912Z,6.35
2023-03-06T05:03:59.959Z,6.85
2023-03-06T05:05:00.000Z,7.25
2023-03-06T05:06:00.064Z,7.29
2023-03-06T05:07:00.147Z,7.35
2023-03-06T05:08:00.143Z,5.97
2023-03-06T05:09:00.164Z,6.81
2023-03-06T05:10:00.225Z,6.17
2023-03-06T05:11:00.256Z,6.75
2023-03-06T05:12:00.304Z,6.77
2023-03-06T05:13:00.339Z,7.16
2023-03-06T05:14:00.392Z,7.25
2023-03-06T05:15:00.379Z,6.81
2023-03-06T05:16:00.297Z,7.01
2023-03-06T05:17:00.302Z,6.39
2023-03-06T05:18:00.268Z,5.08
2023-03-06T05:19:00.247Z,7.14
2023-03-06T05:20:00.290Z,6.90
2023-03-06T05:21:00.230Z,7.61
2023-03-06T05:22:00.255Z,6.63
2023-03-06T05:23:00.219Z,6.86
2023-03-06T05:24:00.275Z,6.31
2023-03-06T05:25:00.186Z,6.49
2023-03-06T05:26:00.175Z,7.17
2023-03-06T05:27:00.202Z,6.60
2023-03-06T05:28:00.125Z,6.56
2023-03-06T05:29:00.187Z,6.49
2023-03-06T05:30:00.175Z,6.02
2023-03-06T05:31:01.700Z,6.88
2023-03-06T05:32:00.223Z,6.72
2023-03-06T05:33:00.084Z,6.30
2023-03-06T05:34:00.143Z,6.62
2023-03-06T05:35:00.037Z,6.69
2023-03-06T05:36:00.106Z,6.44
2023-03-06T05:37:00.002Z,6.46
2023-03-06T05:38:00.002Z,6.36
2023-03-06T05:38:59.966Z,8.16
2023-03-06T05:39:59.979Z,6.43
2023-03-06T05:40:59.952Z,7.38
2023-03-06T05:41:59.911Z,7.13
2023-03-06T05:42:59.969Z,7.32
2023-03-06T05:43:59.881Z,6.56
2023-03-06T05:44:59.886Z,8.28
2023-03-06T05:45:59.898Z,7.94
2023-03-06T05:46:59.818Z,7.31
2023-03-06T05:47:59.923Z,8.66
2023-03-06T05:48:59.789Z,9.06
2023-03-06T05:49:59.791Z,9.10
2023-03-06T05:50:59.808Z,9.04
2023-03-06T05:51:59.766Z,8.29
2023-03-06T05:52:59.740Z,10.00
2023-03-06T05:53:59.741Z,10.27
2023-03-06T05:54:59.700Z,7.41
2023-03-06T05:55:59.719Z,8.81
2023-03-06T05:56:59.727Z,8.86
2023-03-06T05:57:59.726Z,9.01
2023-03-06T05:58:59.636Z,9.69
2023-03-06T05:59:59.635Z,9.55
2023-03-06T06:00:59.669Z,9.30
2023-03-06T06:01:59.638Z,8.22
2023-03-06T06:02:59.569Z,6.63
2023-03-06T06:03:59.572Z,6.44
2023-03-06T06:04:59.592Z,6.22
2023-03-06T06:05:59.539Z,7.52
2023-03-06T06:06:59.534Z,5.67
2023-03-06T06:07:59.494Z,7.51
2023-03-06T06:08:59.460Z,5.45
2023-03-06T06:09:59.481Z,5.01
2023-03-06T06:10:59.416Z,5.65
2023-03-06T06:11:59.416Z,6.38
2023-03-06T06:12:59.415Z,5.99
2023-03-06T06:13:59.377Z,5.35
2023-03-06T06:14:59.345Z,6.12
2023-03-06T06:15:59.381Z,5.08
2023-03-06T06:16:59.279Z,6.40
2023-03-06T06:17:59.364Z,5.24
2023-03-06T06:18:59.264Z,5.64
2023-03-06T06:19:59.236Z,5.44
2023-03-06T06:20:59.188Z,6.71
2023-03-06T06:21:59.161Z,5.70
2023-03-06T06:22:59.125Z,4.37
2023-03-06T06:23:59.094Z,5.81
2023-03-06T06:24:59.136Z,5.60
2023-03-06T06:25:59.058Z,4.81
2023-03-06T06:26:59.250Z,5.60
2023-03-06T06:27:59.006Z,4.33
2023-03-06T06:29:00.246Z,4.73
2023-03-06T06:29:59.097Z,4.65
2023-03-06T06:30:59.303Z,4.74
2023-03-06T06:31:59.049Z,5.92
2023-03-06T06:32:59.203Z,4.16
2023-03-06T06:33:58.908Z,7.97
2023-03-06T06:34:58.836Z,8.98
2023-03-06T06:35:59.557Z,9.49
2023-03-06T06:36:59.021Z,10.98
2023-03-06T06:37:58.759Z,10.79
2023-03-06T06:38:58.837Z,12.85
2023-03-06T06:39:59.431Z,10.85
2023-03-06T06:41:33.072Z,11.23
2023-03-06T06:42:15.450Z,9.76
2023-03-06T06:42:58.739Z,7.61
2023-03-06T06:43:59.110Z,8.92
2023-03-06T06:44:58.749Z,8.61
2023-03-06T06:46:19.592Z,7.74
2023-03-06T06:47:21.707Z,6.92
2023-03-06T06:47:59.873Z,6.92
2023-03-06T06:48:58.552Z,7.14
2023-03-06T06:49:59.844Z,6.97
2023-03-06T06:50:59.584Z,7.50
2023-03-06T06:52:00.601Z,5.88
2023-03-06T06:52:58.557Z,6.26
2023-03-06T06:53:59.437Z,6.46
2023-03-06T06:54:58.425Z,5.59
2023-03-06T06:56:01.367Z,6.77
2023-03-06T06:56:58.419Z,6.66
2023-03-06T06:57:58.331Z,5.83
2023-03-06T06:59:13.974Z,6.87
2023-03-06T06:59:59.393Z,7.28
2023-03-06T07:00:58.460Z,5.84
2023-03-06T07:01:58.266Z,4.74
2023-03-06T07:02:58.311Z,5.37
2023-03-06T07:03:58.232Z,7.22
2023-03-06T07:05:04.319Z,5.16
2023-03-06T07:05:59.160Z,6.51
2023-03-06T07:06:58.370Z,5.98
2023-03-06T07:07:58.113Z,6.64
2023-03-06T07:08:58.082Z,6.47
2023-03-06T07:09:58.076Z,6.18
2023-03-06T07:10:58.036Z,6.79
2023-03-06T07:11:58.199Z,6.69
2023-03-06T07:12:57.971Z,6.69
2023-03-06T07:13:57.963Z,6.91
2023-03-06T07:14:57.988Z,7.41
2023-03-06T07:15:57.994Z,6.49
2023-03-06T07:16:57.951Z,5.01
2023-03-06T07:17:57.904Z,5.57
2023-03-06T07:18:58.080Z,6.10
2023-03-06T07:20:00.739Z,6.49
2023-03-06T07:20:59.264Z,6.95
2023-03-06T07:21:57.766Z,5.83
2023-03-06T07:22:57.731Z,7.05
2023-03-06T07:23:58.368Z,5.33
2023-03-06T07:24:57.677Z,6.49
2023-03-06T07:25:57.589Z,6.10
2023-03-06T07:26:57.650Z,6.15
2023-03-06T07:27:57.534Z,6.27
2023-03-06T07:28:57.505Z,6.62
2023-03-06T07:29:57.455Z,7.06
2023-03-06T07:30:57.448Z,6.62
2023-03-06T07:31:57.397Z,5.97
2023-03-06T07:32:58.255Z,5.49
2023-03-06T07:33:57.934Z,5.86
2023-03-06T07:35:13.740Z,5.65
2023-03-06T07:35:58.510Z,6.18
2023-03-06T07:36:57.268Z,5.44
2023-03-06T07:37:57.279Z,5.11
2023-03-06T07:38:57.571Z,6.20
2023-03-06T07:39:57.322Z,6.08
2023-03-06T07:40:58.002Z,6.52
2023-03-06T07:41:58.345Z,5.94
2023-03-06T07:43:09.230Z,6.92
2023-03-06T07:43:57.304Z,5.09
2023-03-06T07:44:57.274Z,8.03
2023-03-06T07:45:57.718Z,7.24
2023-03-06T07:46:57.390Z,7.03
2023-03-06T07:47:57.382Z,7.96
2023-03-06T07:48:57.151Z,6.77
2023-03-06T07:49:57.217Z,7.50
2023-03-06T07:50:57.133Z,6.67
2023-03-06T07:51:57.128Z,6.86
2023-03-06T07:52:57.576Z,6.46
2023-03-06T07:53:57.153Z,6.06
2023-03-06T07:54:57.142Z,6.36
2023-03-06T07:55:57.231Z,6.29
2023-03-06T07:56:57.029Z,6.66
2023-03-06T07:57:57.172Z,6.48
2023-03-06T07:58:57.215Z,6.32
2023-03-06T07:59:57.089Z,6.15
2023-03-06T08:00:57.013Z,6.42
2023-03-06T08:01:57.076Z,6.28
2023-03-06T08:02:57.124Z,6.50
2023-03-06T08:03:57.134Z,6.03
2023-03-06T08:04:56.989Z,7.11
2023-03-06T08:05:57.098Z,5.89
2023-03-06T08:06:56.953Z,6.14
2023-03-06T08:07:56.932Z,5.78
2023-03-06T08:08:56.984Z,6.14
2023-03-06T08:09:58.104Z,5.83
2023-03-06T08:10:56.825Z,6.43
2023-03-06T08:11:56.792Z,6.52
2023-03-06T08:12:56.851Z,6.78
2023-03-06T08:13:56.781Z,6.25
2023-03-06T08:14:56.723Z,4.88
2023-03-06T08:15:56.765Z,5.59
2023-03-06T08:16:56.684Z,6.43
2023-03-06T08:17:56.607Z,6.10
2023-03-06T08:18:56.578Z,5.82
2023-03-06T08:19:56.636Z,5.45
2023-03-06T08:20:56.688Z,5.99
2023-03-06T08:21:56.456Z,7.04
2023-03-06T08:23:00.278Z,5.91
2023-03-06T08:23:56.407Z,6.10
2023-03-06T08:24:56.406Z,5.48
2023-03-06T08:25:56.330Z,5.82
2023-03-06T08:26:56.326Z,5.06
2023-03-06T08:27:56.400Z,5.95
2023-03-06T08:28:56.297Z,6.13
2023-03-06T08:29:56.283Z,6.12
2023-03-06T08:30:56.370Z,6.28
2023-03-06T08:31:56.372Z,5.67
2023-03-06T08:32:56.170Z,6.33
2023-03-06T08:33:57.048Z,5.97
2023-03-06T08:34:56.142Z,6.14
2023-03-06T08:35:56.385Z,5.62
2023-03-06T08:36:56.463Z,5.50
2023-03-06T08:37:56.120Z,5.36
2023-03-06T08:38:56.014Z,6.44
2023-03-06T08:39:55.924Z,5.58
2023-03-06T08:40:56.056Z,5.87
2023-03-06T08:41:55.892Z,6.25
2023-03-06T08:42:55.835Z,6.47
2023-03-06T08:43:55.825Z,8.67
2023-03-06T08:44:55.744Z,7.60
2023-03-06T08:45:56.883Z,7.25
2023-03-06T08:46:55.784Z,8.34
2023-03-06T08:47:56.718Z,7.66
2023-03-06T08:48:55.790Z,7.09
2023-03-06T08:49:55.615Z,7.36
2023-03-06T08:50:55.642Z,6.77
2023-03-06T08:51:55.912Z,6.26
2023-03-06T08:52:55.511Z,9.10
2023-03-06T08:53:55.651Z,10.71
2023-03-06T08:54:55.685Z,10.21
2023-03-06T08:55:55.471Z,9.45
2023-03-06T08:56:55.541Z,10.67
2023-03-06T08:57:55.406Z,10.08
2023-03-06T08:58:55.437Z,11.40
2023-03-06T08:59:55.498Z,10.19
2023-03-06T09:00:55.360Z,10.78
2023-03-06T09:01:55.397Z,11.09
2023-03-06T09:02:55.349Z,11.52
2023-03-06T09:03:55.267Z,11.26
2023-03-06T09:04:55.423Z,10.53
2023-03-06T09:05:55.229Z,10.85
2023-03-06T09:06:55.636Z,11.30
2023-03-06T09:07:55.785Z,10.17
2023-03-06T09:08:56.786Z,6.96
2023-03-06T09:09:55.180Z,7.55
2023-03-06T09:10:55.245Z,8.16
2023-03-06T09:11:55.154Z,7.57
2023-03-06T09:12:55.414Z,7.53
2023-03-06T09:13:55.082Z,6.37
2023-03-06T09:14:55.148Z,7.52
2023-03-06T09:15:56.424Z,7.12
2023-03-06T09:16:55.116Z,6.85
2023-03-06T09:17:55.062Z,9.83
2023-03-06T09:18:55.091Z,9.50
2023-03-06T09:19:54.986Z,9.17
2023-03-06T09:20:54.963Z,9.73
2023-03-06T09:21:55.099Z,9.74
2023-03-06T09:22:54.891Z,10.46
2023-03-06T09:23:54.962Z,9.92
2023-03-06T09:24:54.835Z,10.80
2023-03-06T09:25:54.853Z,10.29
2023-03-06T09:26:54.861Z,11.11
2023-03-06T09:28:08.987Z,10.95
2023-03-06T09:28:56.657Z,11.51
2023-03-06T09:29:54.839Z,10.16
2023-03-06T09:30:54.891Z,10.58
2023-03-06T09:31:55.901Z,9.48
2023-03-06T09:32:54.886Z,7.84
2023-03-06T09:33:55.053Z,9.23
2023-03-06T09:34:55.307Z,8.79
2023-03-06T09:35:54.802Z,9.53
2023-03-06T09:36:57.189Z,8.91
2023-03-06T09:37:54.735Z,10.83
2023-03-06T09:38:54.652Z,7.04
2023-03-06T09:39:54.641Z,7.63
2023-03-06T09:40:54.729Z,7.97
2023-03-06T09:41:54.582Z,8.75
2023-03-06T09:42:54.638Z,8.44
2023-03-06T09:43:54.632Z,7.10
2023-03-06T09:44:54.633Z,6.29
2023-03-06T09:45:54.545Z,6.92
2023-03-06T09:46:54.526Z,7.67
2023-03-06T09:47:54.481Z,7.99
2023-03-06T09:48:54.545Z,7.35
2023-03-06T09:49:54.517Z,6.96
2023-03-06T09:50:54.736Z,7.41
2023-03-06T09:51:54.354Z,7.44
2023-03-06T09:52:54.412Z,7.32
2023-03-06T09:53:54.336Z,7.51
2023-03-06T09:54:54.349Z,7.89
2023-03-06T09:55:54.313Z,7.35
2023-03-06T09:56:54.571Z,5.69
2023-03-06T09:57:54.258Z,6.19
2023-03-06T09:58:54.335Z,6.29
2023-03-06T09:59:54.504Z,3.97
2023-03-06T10:00:54.293Z,5.70
2023-03-06T10:01:54.168Z,5.84
2023-03-06T10:02:54.276Z,7.55
2023-03-06T10:03:54.095Z,6.31
2023-03-06T10:05:54.106Z,6.25
2023-03-06T10:06:54.042Z,5.53
2023-03-06T10:07:54.429Z,5.64
2023-03-06T10:08:53.993Z,5.88
2023-03-06T10:09:53.990Z,5.43
2023-03-06T10:10:53.917Z,6.76
2023-03-06T10:11:53.918Z,5.22
2023-03-06T10:12:53.883Z,4.79
2023-03-06T10:13:53.826Z,5.94
2023-03-06T10:14:53.940Z,5.53
2023-03-06T10:15:53.811Z,5.25
2023-03-06T10:16:53.841Z,5.47
2023-03-06T10:17:53.736Z,7.08
2023-03-06T10:18:53.728Z,5.20
2023-03-06T10:19:53.840Z,5.53
2023-03-06T10:20:53.642Z,4.87
2023-03-06T10:21:53.611Z,6.30
2023-03-06T10:23:01.366Z,4.34
2023-03-06T10:23:54.671Z,5.02
2023-03-06T10:24:53.585Z,4.44
2023-03-06T10:25:53.530Z,5.34
2023-03-06T10:26:53.620Z,4.48
2023-03-06T10:27:53.644Z,4.68
2023-03-06T10:28:53.451Z,5.79
2023-03-06T10:30:02.740Z,6.38
2023-03-06T10:30:54.387Z,4.75
2023-03-06T10:31:53.897Z,5.72
2023-03-06T10:32:53.413Z,6.33
2023-03-06T10:33:53.274Z,5.74
2023-03-06T10:34:53.250Z,6.38
2023-03-06T10:35:53.371Z,5.01
2023-03-06T10:36:53.213Z,4.67
2023-03-06T10:37:53.187Z,6.02
2023-03-06T10:38:53.155Z,4.60
2023-03-06T10:39:53.121Z,6.08
2023-03-06T10:40:54.958Z,5.05
2023-03-06T10:41:53.015Z,5.11
2023-03-06T10:43:05.095Z,5.33
2023-03-06T10:43:54.929Z,4.41
2023-03-06T10:44:52.899Z,5.39
2023-03-06T10:45:52.892Z,5.49
2023-03-06T10:46:52.881Z,4.63
2023-03-06T10:47:52.794Z,6.10
2023-03-06T10:48:52.737Z,4.97
2023-03-06T10:49:52.695Z,6.23
2023-03-06T10:50:53.027Z,5.27
2023-03-06T10:51:52.917Z,5.80
2023-03-06T10:52:52.629Z,5.30
2023-03-06T10:53:52.537Z,5.26
2023-03-06T10:54:52.521Z,5.62
2023-03-06T10:55:52.469Z,5.36
2023-03-06T10:56:52.401Z,5.55
2023-03-06T10:57:52.494Z,5.17
2023-03-06T10:58:52.336Z,3.73
2023-03-06T10:59:52.365Z,4.24
2023-03-06T11:00:53.349Z,5.13
2023-03-06T11:01:52.336Z,4.18
2023-03-06T11:02:52.235Z,4.61
2023-03-06T11:03:52.180Z,3.96
2023-03-06T11:04:52.174Z,5.09
2023-03-06T11:05:52.288Z,3.17
2023-03-06T11:06:52.107Z,5.01
2023-03-06T11:07:52.106Z,5.03
2023-03-06T11:08:52.153Z,5.32
2023-03-06T11:09:52.175Z,3.94
2023-03-06T11:10:52.222Z,5.58
2023-03-06T11:11:52.185Z,4.59
2023-03-06T11:12:52.162Z,6.13
2023-03-06T11:13:52.145Z,6.02
2023-03-06T11:14:52.150Z,5.62
2023-03-06T11:15:52.150Z,6.10
2023-03-06T11:16:52.151Z,6.47
2023-03-06T11:17:52.207Z,7.58
2023-03-06T11:18:52.942Z,6.92
2023-03-06T11:19:52.140Z,6.95
2023-03-06T11:20:53.123Z,6.50
2023-03-06T11:21:51.827Z,6.56
2023-03-06T11:22:51.995Z,5.78
2023-03-06T11:23:52.068Z,5.51
2023-03-06T11:24:51.743Z,5.34
2023-03-06T11:25:51.826Z,4.48
2023-03-06T11:26:51.681Z,4.82
2023-03-06T11:27:51.604Z,3.71
2023-03-06T11:28:51.601Z,5.79
2023-03-06T11:29:51.747Z,5.32
2023-03-06T11:30:51.649Z,4.54
2023-03-06T11:31:51.593Z,3.60
2023-03-06T11:32:51.423Z,4.32
2023-03-06T11:33:51.432Z,4.82
2023-03-06T11:34:51.760Z,3.99
2023-03-06T11:35:51.387Z,4.76
2023-03-06T11:36:51.259Z,3.71
2023-03-06T11:37:51.195Z,4.36
2023-03-06T11:38:51.168Z,3.82
2023-03-06T11:39:51.230Z,4.47
2023-03-06T11:40:52.050Z,4.18
2023-03-06T11:41:51.907Z,3.16
2023-03-06T11:42:51.051Z,2.95
2023-03-06T11:43:51.001Z,3.79
2023-03-06T11:44:50.990Z,3.49
2023-03-06T11:45:50.953Z,3.37
2023-03-06T11:46:50.929Z,3.68
2023-03-06T11:48:51.496Z,3.64
2023-03-06T11:49:50.875Z,3.66
2023-03-06T11:50:50.886Z,4.53
2023-03-06T11:51:50.857Z,3.97
2023-03-06T11:52:50.777Z,3.51
2023-03-06T11:53:50.725Z,3.57
2023-03-06T11:54:50.748Z,3.25
2023-03-06T11:55:50.771Z,3.03
2023-03-06T11:56:50.680Z,3.58
2023-03-06T11:57:50.753Z,3.48
2023-03-06T11:58:50.835Z,4.21
2023-03-06T11:59:50.561Z,4.25
2023-03-06T12:00:50.512Z,3.46
2023-03-06T12:01:50.543Z,3.44
2023-03-06T12:02:50.392Z,3.73
2023-03-06T12:03:50.494Z,3.74
2023-03-06T12:04:50.324Z,3.86
2023-03-06T12:05:50.303Z,2.92
2023-03-06T12:06:50.383Z,4.08
2023-03-06T12:07:50.222Z,2.91
2023-03-06T12:08:50.237Z,4.06
2023-03-06T12:09:50.265Z,3.64
2023-03-06T12:10:51.964Z,3.94
2023-03-06T12:11:50.207Z,4.81
2023-03-06T12:12:50.585Z,3.27
2023-03-06T12:13:49.982Z,3.95
2023-03-06T12:14:50.464Z,4.85
2023-03-06T12:16:51.118Z,3.91
2023-03-06T12:29:50.877Z,5.21
2023-03-06T12:32:53.127Z,4.65
2023-03-06T12:42:48.847Z,3.87
2023-03-06T12:43:48.827Z,4.41
2023-03-06T12:44:48.766Z,3.69
2023-03-06T12:45:48.729Z,3.68
2023-03-06T12:46:48.692Z,3.46
2023-03-06T12:47:48.683Z,3.97
2023-03-06T12:48:48.567Z,3.85
2023-03-06T12:49:48.605Z,3.66
2023-03-06T12:50:48.517Z,3.19
2023-03-06T12:51:48.432Z,4.01
2023-03-06T12:52:49.142Z,3.74
2023-03-06T12:53:48.431Z,3.82
2023-03-06T12:54:48.372Z,3.76
2023-03-06T12:55:48.405Z,3.78
2023-03-06T12:56:48.235Z,4.35
2023-03-06T12:57:48.337Z,4.02
2023-03-06T12:58:48.145Z,3.48
2023-03-06T12:59:48.123Z,3.49
2023-03-06T13:00:52.616Z,3.08
2023-03-06T13:01:49.098Z,4.47
2023-03-06T13:02:49.567Z,3.98
2023-03-06T13:03:47.884Z,3.14
2023-03-06T13:04:47.875Z,3.58
2023-03-06T13:05:47.808Z,3.75
2023-03-06T13:06:50.864Z,3.58
2023-03-06T13:07:47.711Z,3.51
2023-03-06T13:08:47.676Z,3.40
2023-03-06T13:09:47.739Z,4.11
2023-03-06T13:10:47.587Z,3.73
2023-03-06T13:11:47.573Z,3.77
2023-03-06T13:12:47.524Z,3.45
2023-03-06T13:13:47.432Z,3.03
2023-03-06T13:14:54.232Z,3.16
2023-03-06T13:15:48.352Z,4.00
2023-03-06T13:16:47.438Z,3.14
2023-03-06T13:17:47.279Z,3.13
2023-03-06T13:18:47.248Z,3.74
2023-03-06T13:19:47.220Z,4.03
2023-03-06T13:20:47.579Z,3.06
2023-03-06T13:21:47.093Z,3.21
2023-03-06T13:22:47.106Z,3.79
2023-03-06T13:23:47.122Z,3.18
2023-03-06T13:24:47.542Z,2.82
2023-03-06T13:25:46.942Z,3.63
2023-03-06T13:26:46.915Z,3.38
2023-03-06T13:27:47.393Z,3.84
2023-03-06T13:28:46.818Z,3.01
2023-03-06T13:29:46.717Z,3.50
2023-03-06T13:30:46.745Z,3.59
2023-03-06T13:31:46.638Z,2.99
2023-03-06T13:32:46.572Z,3.56
2023-03-06T13:33:46.655Z,4.40
2023-03-06T13:34:46.499Z,4.50
2023-03-06T13:35:46.565Z,5.41
2023-03-06T13:36:46.378Z,3.58
2023-03-06T13:37:46.345Z,3.09
2023-03-06T13:38:46.314Z,5.98
2023-03-06T13:39:46.299Z,4.74
2023-03-06T13:40:46.261Z,4.81
2023-03-06T13:41:46.877Z,4.55
2023-03-06T13:42:46.196Z,6.79
2023-03-06T13:43:46.277Z,6.28
2023-03-06T13:44:46.140Z,5.05
2023-03-06T13:45:46.093Z,6.09
2023-03-06T13:46:46.029Z,5.88
2023-03-06T13:48:47.024Z,6.50
2023-03-06T13:49:45.930Z,6.04
2023-03-06T13:50:45.940Z,6.14
2023-03-06T13:51:45.905Z,6.09
2023-03-06T13:52:45.914Z,5.71
2023-03-06T13:53:45.781Z,4.86
2023-03-06T13:54:45.745Z,4.53
2023-03-06T13:55:45.703Z,5.72
2023-03-06T13:57:45.677Z,5.81
2023-03-06T13:58:45.620Z,6.44
2023-03-06T13:59:45.648Z,4.09
2023-03-06T14:00:45.596Z,5.37
2023-03-06T14:01:45.541Z,4.29
2023-03-06T14:02:45.571Z,5.90
2023-03-06T14:03:45.562Z,5.50
2023-03-06T14:05:45.434Z,7.15
2023-03-06T14:06:45.403Z,6.59
2023-03-06T14:07:45.276Z,8.21
2023-03-06T14:08:45.241Z,7.91
2023-03-06T14:09:45.258Z,7.42
2023-03-06T14:10:45.396Z,7.60
2023-03-06T14:11:45.138Z,7.58
2023-03-06T14:12:45.110Z,8.34
2023-03-06T14:13:47.626Z,6.73
2023-03-06T14:14:45.097Z,7.87
2023-03-06T14:15:45.135Z,7.55
2023-03-06T14:16:50.163Z,7.83
2023-03-06T14:18:44.968Z,8.02
2023-03-06T14:19:44.939Z,8.23
2023-03-06T14:20:44.946Z,6.86
2023-03-06T14:21:44.884Z,8.52
2023-03-06T14:22:44.850Z,8.67
2023-03-06T14:23:44.799Z,7.88
2023-03-06T14:24:44.768Z,7.23
2023-03-06T14:34:44.490Z,7.52
2023-03-06T14:41:44.262Z,8.74
2023-03-06T15:50:42.977Z,4.16
2023-03-06T15:51:45.575Z,3.58
2023-03-06T15:52:42.923Z,3.74
2023-03-06T15:53:42.777Z,3.29
2023-03-06T15:54:42.758Z,3.82
2023-03-06T15:55:42.725Z,3.34
2023-03-06T15:56:42.694Z,2.94
2023-03-06T15:57:42.696Z,3.49
2023-03-06T15:58:42.709Z,3.40
2023-03-06T15:59:42.653Z,3.13
2023-03-06T16:00:42.659Z,3.14
2023-03-06T16:01:43.093Z,3.62
2023-03-06T16:02:42.420Z,3.81
2023-03-06T16:03:42.394Z,3.46
2023-03-06T16:04:42.436Z,2.48
2023-03-06T16:05:42.369Z,3.01
2023-03-06T16:06:42.296Z,3.54
2023-03-06T16:07:42.293Z,2.52
2023-03-06T16:08:43.007Z,2.78
2023-03-06T16:09:47.152Z,2.55
2023-03-06T16:10:43.092Z,1.91
2023-03-06T16:11:44.009Z,3.14
2023-03-06T16:12:42.086Z,2.24
2023-03-06T16:13:42.207Z,2.48
2023-03-06T16:14:41.951Z,2.73
2023-03-06T16:15:41.942Z,2.62
2023-03-06T16:16:41.935Z,3.20
2023-03-06T16:17:41.834Z,2.42
2023-03-06T16:18:41.840Z,2.67
2023-03-06T16:19:42.590Z,2.21
2023-03-06T16:20:41.734Z,2.05
2023-03-06T16:21:41.674Z,2.71
2023-03-06T16:22:42.512Z,2.10
2023-03-06T16:23:42.501Z,2.46
2023-03-06T16:24:41.566Z,2.55
2023-03-06T16:25:41.533Z,1.93
2023-03-06T16:26:41.532Z,2.28
2023-03-06T16:27:41.403Z,2.11
2023-03-06T16:28:41.508Z,2.27
2023-03-06T16:29:41.338Z,2.16
2023-03-06T16:30:41.361Z,2.43
2023-03-06T16:31:41.318Z,1.46
2023-03-06T16:32:41.343Z,2.79
2023-03-06T16:33:41.207Z,2.11
2023-03-06T16:34:42.151Z,2.23
2023-03-06T16:35:41.234Z,2.38
2023-03-06T16:36:41.158Z,2.38
2023-03-06T16:37:41.042Z,2.64
2023-03-06T16:38:41.517Z,2.29
2023-03-06T16:39:41.019Z,2.40
2023-03-06T16:40:41.040Z,1.92
2023-03-06T16:41:40.958Z,1.94
2023-03-06T16:42:41.871Z,1.87
2023-03-06T16:43:40.938Z,2.41
2023-03-06T16:44:40.889Z,1.76
2023-03-06T16:45:40.808Z,2.22
2023-03-06T16:46:40.723Z,2.23
2023-03-06T16:47:40.706Z,2.30